Time;durP1;ratioP1;P1;durP2;ratioP2;P2;SDS_P1;SDS_P2;PMS_P1;PMS_P2;Temp;Humidity;BMP_temperature;BMP_pressure;BME280_temperature;BME280_humidity;BME280_pressure;Samples;Min_cycle;Max_cycle;Signal;HPM_P1;HPM_P2
2023/06/24 00:00:15;;;;;;;6.97;5.65;;;;;;;15.61;100.00;101610.63;684281;28;1509;-56
2023/06/24 00:00:40;;;;;;;7.57;5.82;;;;;;;15.62;100.00;101609.72;681345;29;4387;-57
2023/06/24 00:01:01;;;;;;;8.80;5.80;;;;;;;15.63;100.00;101614.13;677943;29;1527;-56
2023/06/24 00:01:22;;;;;;;8.15;5.88;;;;;;;15.61;100.00;101610.63;679462;29;916;-55
2023/06/24 00:01:43;;;;;;;7.53;5.90;;;;;;;15.60;100.00;101606.25;679551;29;1407;-55
2023/06/24 00:02:05;;;;;;;7.88;5.63;;;;;;;15.60;100.00;101605.38;675227;29;1466;-56
2023/06/24 00:02:26;;;;;;;8.20;5.57;;;;;;;15.61;100.00;101607.97;676621;29;1308;-56
2023/06/24 00:02:46;;;;;;;9.05;5.70;;;;;;;15.59;100.00;101607.13;679265;29;826;-56
2023/06/24 00:03:07;;;;;;;7.85;5.60;;;;;;;15.59;100.00;101609.78;677270;28;1463;-55
2023/06/24 00:03:28;;;;;;;8.07;5.93;;;;;;;15.59;100.00;101609.78;678574;29;1372;-56
2023/06/24 00:03:52;;;;;;;9.50;5.93;;;;;;;15.57;100.00;101601.00;678675;29;4312;-56
2023/06/24 00:04:15;;;;;;;8.23;6.03;;;;;;;15.58;100.00;101610.66;680832;28;1923;-56
2023/06/24 00:04:35;;;;;;;7.18;5.68;;;;;;;15.57;100.00;101602.78;680353;29;806;-55
2023/06/24 00:05:00;;;;;;;7.87;6.23;;;;;;;15.57;100.00;101610.69;682358;29;841;-56
2023/06/24 00:05:21;;;;;;;6.88;5.70;;;;;;;15.56;100.00;101606.28;683724;28;1292;-55
2023/06/24 00:05:43;;;;;;;7.65;5.68;;;;;;;15.56;100.00;101612.44;684230;28;912;-55
2023/06/24 00:06:03;;;;;;;7.72;5.78;;;;;;;15.56;100.00;101604.53;681553;28;2149;-56
2023/06/24 00:06:25;;;;;;;8.10;6.03;;;;;;;15.55;100.00;101602.78;682863;28;877;-56
2023/06/24 00:06:46;;;;;;;7.55;5.82;;;;;;;15.56;100.00;101617.72;683429;28;4522;-55
2023/06/24 00:07:07;;;;;;;7.40;5.40;;;;;;;15.55;100.00;101609.81;682267;28;1553;-56
2023/06/24 00:07:27;;;;;;;8.95;5.53;;;;;;;15.55;100.00;101609.81;684422;28;960;-55
2023/06/24 00:07:48;;;;;;;8.63;5.47;;;;;;;15.51;100.00;101603.72;683549;28;973;-56
2023/06/24 00:08:08;;;;;;;8.50;6.00;;;;;;;15.51;100.00;101608.97;681554;28;1660;-55
2023/06/24 00:08:34;;;;;;;7.57;5.50;;;;;;;15.49;100.00;101606.38;682341;28;1392;-55
2023/06/24 00:09:00;;;;;;;7.85;5.65;;;;;;;15.53;100.00;101609.81;682128;28;919;-56
2023/06/24 00:09:20;;;;;;;8.82;6.03;;;;;;;15.51;100.00;101611.63;682913;28;1428;-55
2023/06/24 00:09:41;;;;;;;7.47;5.70;;;;;;;15.52;100.00;101610.72;683388;28;4501;-56
2023/06/24 00:10:03;;;;;;;7.40;5.57;;;;;;;15.49;100.00;101611.63;681408;28;1779;-56
2023/06/24 00:10:23;;;;;;;7.53;5.75;;;;;;;15.44;100.00;101609.94;682078;28;999;-55
2023/06/24 00:10:44;;;;;;;7.78;5.50;;;;;;;15.40;100.00;101616.97;682417;28;853;-56
2023/06/24 00:11:05;;;;;;;8.07;5.63;;;;;;;15.38;100.00;101608.25;680914;28;1723;-56
2023/06/24 00:11:29;;;;;;;7.70;5.97;;;;;;;15.33;100.00;101608.25;681904;29;813;-56
2023/06/24 00:11:50;;;;;;;7.45;5.68;;;;;;;15.32;100.00;101609.13;681584;29;891;-56
2023/06/24 00:12:10;;;;;;;8.47;5.83;;;;;;;15.33;100.00;101613.53;681316;28;1739;-56
2023/06/24 00:12:32;;;;;;;9.23;6.00;;;;;;;15.32;100.00;101606.50;681876;29;792;-56
2023/06/24 00:12:53;;;;;;;8.60;5.80;;;;;;;15.31;100.00;101612.69;679545;28;4294;-56
2023/06/24 00:13:17;;;;;;;7.10;5.17;;;;;;;15.29;100.00;101614.44;678666;29;1210;-55
2023/06/24 00:13:37;;;;;;;8.57;5.82;;;;;;;15.27;100.00;101616.25;679471;29;822;-55
2023/06/24 00:13:58;;;;;;;8.27;6.10;;;;;;;15.26;100.00;101603.94;678771;29;1768;-57
2023/06/24 00:14:18;;;;;;;8.27;5.97;;;;;;;15.30;100.00;101604.81;679913;29;972;-56
2023/06/24 00:14:38;;;;;;;9.88;5.97;;;;;;;15.31;100.00;101610.06;679245;29;1314;-56
2023/06/24 00:14:59;;;;;;;8.67;5.80;;;;;;;15.32;100.00;101606.50;678538;29;1558;-57
2023/06/24 00:15:19;;;;;;;7.97;5.88;;;;;;;15.29;100.00;101609.19;679836;29;944;-56
2023/06/24 00:15:42;;;;;;;8.10;5.70;;;;;;;15.30;100.00;101613.56;678759;29;4526;-57
2023/06/24 00:16:03;;;;;;;8.55;5.80;;;;;;;15.28;100.00;101610.06;677971;29;1555;-56
2023/06/24 00:16:27;;;;;;;8.13;5.82;;;;;;;15.28;100.00;101607.41;678439;29;3309;-57
2023/06/24 00:16:51;;;;;;;8.40;6.30;;;;;;;15.30;100.00;101610.06;677731;29;826;-55
2023/06/24 00:17:11;;;;;;;7.57;5.70;;;;;;;15.29;100.00;101606.53;678042;29;2004;-56
2023/06/24 00:17:32;;;;;;;7.40;5.63;;;;;;;15.31;100.00;101609.16;679313;29;901;-56
2023/06/24 00:17:52;;;;;;;7.60;5.65;;;;;;;15.30;100.00;101612.72;678392;29;986;-56
2023/06/24 00:18:12;;;;;;;8.23;5.70;;;;;;;15.30;100.00;101608.28;674918;29;1483;-56
2023/06/24 00:18:34;;;;;;;8.63;5.70;;;;;;;15.31;100.00;101606.53;677130;29;799;-56
2023/06/24 00:19:00;;;;;;;7.70;5.78;;;;;;;15.30;100.00;101608.28;676627;29;4415;-56
2023/06/24 00:19:23;;;;;;;9.45;5.80;;;;;;;15.30;100.00;101613.56;680710;29;964;-56
2023/06/24 00:19:46;;;;;;;9.10;5.72;;;;;;;15.29;100.00;101611.81;681521;29;1233;-56
2023/06/24 00:20:10;;;;;;;8.95;5.72;;;;;;;15.30;100.00;101610.06;682796;28;1817;-56
2023/06/24 00:20:30;;;;;;;7.95;5.70;;;;;;;15.28;100.00;101617.97;681235;28;860;-56
2023/06/24 00:20:51;;;;;;;7.85;5.85;;;;;;;15.27;100.00;101610.97;682348;29;873;-55
2023/06/24 00:21:11;;;;;;;8.73;6.33;;;;;;;15.28;100.00;101615.31;681078;28;1494;-56
2023/06/24 00:21:32;;;;;;;8.10;5.97;;;;;;;15.28;100.00;101611.81;682857;29;983;-56
2023/06/24 00:21:52;;;;;;;8.52;5.90;;;;;;;15.25;100.00;101610.09;681813;29;4519;-56
2023/06/24 00:22:13;;;;;;;8.73;6.03;;;;;;;15.24;100.00;101610.97;681407;28;1666;-56
2023/06/24 00:22:33;;;;;;;7.77;5.93;;;;;;;15.22;100.00;101615.41;682704;29;983;-57
2023/06/24 00:22:53;;;;;;;8.65;5.75;;;;;;;15.22;100.00;101612.75;682291;28;1419;-57
2023/06/24 00:23:24;;;;;;;7.97;5.83;;;;;;;15.22;100.00;101617.16;681423;28;1495;-57
2023/06/24 00:23:44;;;;;;;8.93;6.05;;;;;;;15.20;100.00;101619.78;682595;29;991;-56
2023/06/24 00:24:05;;;;;;;8.57;6.20;;;;;;;15.21;100.00;101618.91;681300;28;1999;-56
2023/06/24 00:24:25;;;;;;;7.40;5.87;;;;;;;15.23;100.00;101614.50;682503;28;1301;-57
2023/06/24 00:24:46;;;;;;;8.43;6.07;;;;;;;15.25;100.00;101615.34;682523;28;4390;-56
2023/06/24 00:25:07;;;;;;;8.30;5.90;;;;;;;15.22;100.00;101607.50;681392;28;1605;-56
2023/06/24 00:25:27;;;;;;;7.77;6.10;;;;;;;15.19;100.00;101615.44;682144;28;1008;-56
2023/06/24 00:25:47;;;;;;;8.00;6.32;;;;;;;15.18;100.00;101610.19;683065;28;828;-56
2023/06/24 00:26:08;;;;;;;7.80;6.20;;;;;;;15.18;100.00;101607.53;681588;28;1490;-56
2023/06/24 00:26:29;;;;;;;7.40;5.93;;;;;;;15.17;100.00;101613.69;682403;28;1139;-56
2023/06/24 00:26:49;;;;;;;7.20;6.10;;;;;;;15.18;100.00;101605.78;684813;28;1654;-56
2023/06/24 00:27:09;;;;;;;8.30;6.20;;;;;;;15.18;100.00;101618.09;682611;28;1690;-56
2023/06/24 00:27:30;;;;;;;7.80;6.13;;;;;;;15.18;100.00;101612.81;682806;28;877;-56
2023/06/24 00:27:51;;;;;;;7.23;5.90;;;;;;;15.17;100.00;101609.28;683564;28;4500;-56
2023/06/24 00:28:11;;;;;;;7.63;6.20;;;;;;;15.17;100.00;101614.56;683556;28;1490;-56
2023/06/24 00:28:31;;;;;;;10.00;6.20;;;;;;;15.18;100.00;101611.03;680034;29;818;-56
2023/06/24 00:28:52;;;;;;;7.57;5.97;;;;;;;15.16;100.00;101615.47;678450;29;1302;-56
2023/06/24 00:29:12;;;;;;;7.70;6.10;;;;;;;15.14;100.00;101606.69;676301;29;1492;-56
2023/06/24 00:29:33;;;;;;;8.13;6.00;;;;;;;15.15;100.00;101608.44;677204;29;988;-56
2023/06/24 00:29:54;;;;;;;8.52;6.00;;;;;;;15.16;100.00;101615.47;677539;29;1060;-55
2023/06/24 00:30:14;;;;;;;7.75;6.30;;;;;;;15.18;100.00;101605.78;676584;29;1607;-56
2023/06/24 00:30:34;;;;;;;7.60;5.90;;;;;;;15.13;100.00;101603.19;682712;28;1616;-56
2023/06/24 00:30:55;;;;;;;8.13;6.10;;;;;;;15.10;100.00;101602.34;682707;28;4763;-57
2023/06/24 00:31:15;;;;;;;8.93;5.80;;;;;;;15.07;100.00;101605.00;682376;28;1478;-56
2023/06/24 00:31:36;;;;;;;7.20;5.40;;;;;;;15.06;100.00;101611.16;682961;28;994;-57
2023/06/24 00:31:57;;;;;;;8.18;6.10;;;;;;;15.04;100.00;101608.53;681819;29;1236;-56
2023/06/24 00:32:17;;;;;;;8.50;6.20;;;;;;;15.06;100.00;101609.38;681276;28;1478;-56
2023/06/24 00:32:37;;;;;;;7.77;6.20;;;;;;;15.06;100.00;101605.88;679766;29;1379;-56
2023/06/24 00:32:58;;;;;;;8.35;6.10;;;;;;;15.08;100.00;101601.50;678999;29;1651;-56
2023/06/24 00:33:21;;;;;;;8.50;6.07;;;;;;;15.08;100.00;101602.34;679643;29;1187;-56
2023/06/24 00:33:42;;;;;;;8.65;6.07;;;;;;;15.08;100.00;101609.38;679475;28;4588;-57
2023/06/24 00:34:02;;;;;;;7.70;5.63;;;;;;;15.08;100.00;101604.97;679249;29;1594;-56
2023/06/24 00:34:23;;;;;;;8.07;5.80;;;;;;;15.08;100.00;101615.50;677899;29;854;-56
2023/06/24 00:34:47;;;;;;;8.65;6.18;;;;;;;15.07;100.00;101603.22;678563;29;1548;-57
2023/06/24 00:35:08;;;;;;;8.85;6.30;;;;;;;15.07;100.00;101603.22;679394;29;1686;-56
2023/06/24 00:35:31;;;;;;;9.23;6.40;;;;;;;15.10;100.00;101610.22;679420;29;1106;-56
2023/06/24 00:35:52;;;;;;;9.18;6.07;;;;;;;15.09;100.00;101606.75;679135;29;1455;-57
2023/06/24 00:36:12;;;;;;;8.90;6.37;;;;;;;15.11;100.00;101598.81;677257;29;1410;-56
2023/06/24 00:36:35;;;;;;;8.80;6.35;;;;;;;15.11;100.00;101604.09;679674;29;1163;-57
2023/06/24 00:36:56;;;;;;;9.18;6.05;;;;;;;15.11;100.00;101604.09;680664;29;4530;-57
2023/06/24 00:37:17;;;;;;;7.87;6.00;;;;;;;15.09;100.00;101606.75;680551;28;1520;-56
2023/06/24 00:37:37;;;;;;;7.50;6.00;;;;;;;15.10;100.00;101603.19;681189;29;1633;-56
2023/06/24 00:37:58;;;;;;;8.05;6.10;;;;;;;15.13;100.00;101604.94;679602;28;1609;-56
2023/06/24 00:38:18;;;;;;;7.67;6.07;;;;;;;15.13;100.00;101612.84;679655;29;998;-56
2023/06/24 00:38:39;;;;;;;7.93;6.00;;;;;;;15.12;100.00;101605.84;679674;29;1711;-56
2023/06/24 00:39:03;;;;;;;10.02;6.25;;;;;;;15.11;100.00;101599.69;678692;28;5585;-56
2023/06/24 00:39:23;;;;;;;9.07;6.00;;;;;;;15.11;100.00;101604.09;679975;29;1283;-57
2023/06/24 00:39:44;;;;;;;7.87;6.00;;;;;;;15.12;100.00;101608.47;678360;29;4389;-57
2023/06/24 00:40:05;;;;;;;7.22;5.90;;;;;;;15.10;100.00;101602.34;679076;29;1490;-56
2023/06/24 00:40:25;;;;;;;8.27;6.10;;;;;;;15.07;100.00;101595.31;682693;29;1058;-57
2023/06/24 00:40:46;;;;;;;7.93;5.87;;;;;;;15.07;100.00;101602.38;682144;29;1375;-57
2023/06/24 00:41:08;;;;;;;8.52;6.38;;;;;;;15.10;100.00;101595.28;680811;28;961;-56
2023/06/24 00:41:29;;;;;;;7.50;6.13;;;;;;;15.11;100.00;101606.72;682629;29;1437;-56
2023/06/24 00:41:49;;;;;;;8.60;6.38;;;;;;;15.10;100.00;101597.06;682357;28;1179;-56
2023/06/24 00:42:10;;;;;;;9.63;6.47;;;;;;;15.08;100.00;101604.13;681081;28;1591;-57
2023/06/24 00:42:33;;;;;;;7.60;6.40;;;;;;;15.09;100.00;101603.22;682057;29;858;-56
2023/06/24 00:42:54;;;;;;;8.77;6.32;;;;;;;15.12;100.00;101595.31;681238;29;4365;-56
2023/06/24 00:43:15;;;;;;;7.72;6.15;;;;;;;15.12;100.00;101601.44;681573;28;1557;-56
2023/06/24 00:43:35;;;;;;;7.88;6.10;;;;;;;15.10;100.00;101597.06;682569;29;840;-55
2023/06/24 00:43:57;;;;;;;8.07;6.28;;;;;;;15.09;100.00;101596.19;682232;29;1503;-57
2023/06/24 00:44:19;;;;;;;8.98;6.68;;;;;;;15.13;100.00;101599.66;682290;29;1073;-57
2023/06/24 00:44:39;;;;;;;7.65;6.07;;;;;;;15.13;100.00;101597.03;682750;29;893;-57
2023/06/24 00:45:03;;;;;;;8.15;6.28;;;;;;;15.13;100.00;101599.66;680319;28;1562;-56
2023/06/24 00:45:24;;;;;;;10.30;6.28;;;;;;;15.14;100.00;101604.91;676843;29;1401;-56
2023/06/24 00:45:48;;;;;;;10.30;6.40;;;;;;;15.15;100.00;101604.03;677701;29;4556;-56
2023/06/24 00:46:08;;;;;;;8.07;6.15;;;;;;;15.14;100.00;101593.50;678291;28;1594;-56
2023/06/24 00:46:31;;;;;;;8.50;6.50;;;;;;;15.13;100.00;101599.66;679751;29;858;-55
2023/06/24 00:46:52;;;;;;;8.45;6.43;;;;;;;15.15;100.00;101600.53;680011;29;936;-57
2023/06/24 00:47:13;;;;;;;7.55;6.07;;;;;;;15.13;100.00;101597.03;678861;29;1170;-55
2023/06/24 00:47:34;;;;;;;8.10;6.07;;;;;;;15.14;100.00;101601.41;683396;28;922;-56
2023/06/24 00:47:55;;;;;;;7.77;6.00;;;;;;;15.14;100.00;101598.78;683118;28;1021;-56
2023/06/24 00:48:16;;;;;;;7.53;5.97;;;;;;;15.15;100.00;101598.78;682782;28;1672;-56
2023/06/24 00:48:39;;;;;;;7.70;6.18;;;;;;;15.15;100.00;101596.13;681166;29;804;-56
2023/06/24 00:49:02;;;;;;;9.05;5.95;;;;;;;15.17;100.00;101597.88;680665;28;4864;-56
2023/06/24 00:49:23;;;;;;;9.02;6.03;;;;;;;15.17;100.00;101606.66;677384;29;1285;-56
2023/06/24 00:49:45;;;;;;;8.63;6.22;;;;;;;15.18;100.00;101605.78;678765;29;884;-56
2023/06/24 00:50:06;;;;;;;7.88;5.97;;;;;;;15.18;100.00;101605.78;677405;29;1569;-56
2023/06/24 00:50:27;;;;;;;8.93;6.60;;;;;;;15.20;100.00;101603.13;678147;29;1373;-55
2023/06/24 00:50:49;;;;;;;8.57;6.70;;;;;;;15.20;100.00;101606.63;678858;29;907;-56
2023/06/24 00:51:09;;;;;;;9.57;6.80;;;;;;;15.22;100.00;101602.22;676357;29;1484;-56
2023/06/24 00:51:34;;;;;;;8.67;6.40;;;;;;;15.23;100.00;101603.97;679455;29;912;-56
2023/06/24 00:51:55;;;;;;;8.60;6.45;;;;;;;15.22;100.00;101607.50;678363;29;4466;-56
2023/06/24 00:52:16;;;;;;;9.52;6.40;;;;;;;15.21;100.00;101605.75;678363;29;2006;-57
2023/06/24 00:52:38;;;;;;;9.40;6.60;;;;;;;15.22;100.00;101607.50;679447;29;905;-54
2023/06/24 00:52:59;;;;;;;8.80;6.57;;;;;;;15.23;100.00;101601.34;679135;28;1577;-56
2023/06/24 00:53:20;;;;;;;8.30;6.22;;;;;;;15.25;100.00;101606.59;682553;29;920;-56
2023/06/24 00:53:40;;;;;;;8.57;6.38;;;;;;;15.26;100.00;101608.34;677987;29;2009;-56
2023/06/24 00:54:01;;;;;;;8.00;6.13;;;;;;;15.24;100.00;101600.44;678064;28;1582;-55
2023/06/24 00:54:21;;;;;;;8.35;6.13;;;;;;;15.25;100.00;101601.34;680872;29;901;-56
2023/06/24 00:54:44;;;;;;;9.10;6.17;;;;;;;15.25;100.00;101612.72;680836;29;4734;-55
2023/06/24 00:55:06;;;;;;;8.55;6.00;;;;;;;15.25;100.00;101607.47;680688;28;1087;-56
2023/06/24 00:55:28;;;;;;;8.52;6.15;;;;;;;15.26;100.00;101608.34;682061;29;972;-56
2023/06/24 00:55:49;;;;;;;8.30;6.13;;;;;;;15.23;100.00;101609.25;683420;28;966;-56
2023/06/24 00:56:13;;;;;;;8.80;6.00;;;;;;;15.23;100.00;101603.97;683558;28;1677;-56
2023/06/24 00:56:42;;;;;;;8.77;6.38;;;;;;;15.22;100.00;101604.84;684062;28;920;-56
2023/06/24 00:57:03;;;;;;;8.43;6.20;;;;;;;15.23;100.00;101598.72;679688;28;1585;-56
2023/06/24 00:57:23;;;;;;;8.40;6.10;;;;;;;15.22;100.00;101607.50;683841;28;1064;-56
2023/06/24 00:57:45;;;;;;;8.00;6.00;;;;;;;15.22;100.00;101602.22;682709;28;4365;-56
2023/06/24 00:58:08;;;;;;;8.93;5.97;;;;;;;15.18;100.00;101603.13;682926;28;1574;-56
2023/06/24 00:58:31;;;;;;;8.73;6.15;;;;;;;15.19;100.00;101607.53;685066;28;1588;-56
2023/06/24 00:58:52;;;;;;;8.35;5.82;;;;;;;15.18;100.00;101603.13;684211;28;901;-57
2023/06/24 00:59:15;;;;;;;7.30;6.07;;;;;;;15.17;100.00;101604.03;684189;28;1569;-56
2023/06/24 00:59:37;;;;;;;8.10;6.43;;;;;;;15.17;100.00;101600.53;685226;28;813;-56
2023/06/24 00:59:59;;;;;;;8.20;5.80;;;;;;;15.17;100.00;101606.66;683842;28;1344;-56
2023/06/24 01:00:22;;;;;;;8.00;5.78;;;;;;;15.17;100.00;101606.66;682870;29;916;-56
2023/06/24 01:00:45;;;;;;;7.10;5.65;;;;;;;15.13;100.00;101607.56;681347;28;4840;-56
2023/06/24 01:01:08;;;;;;;7.88;5.43;;;;;;;15.10;100.00;101600.56;681228;28;1538;-56
2023/06/24 01:01:33;;;;;;;8.23;5.95;;;;;;;15.13;100.00;101607.56;682610;29;952;-56
2023/06/24 01:01:53;;;;;;;8.32;6.05;;;;;;;15.13;100.00;101603.19;682075;29;1152;-58
2023/06/24 01:02:14;;;;;;;8.90;6.07;;;;;;;15.13;100.00;101607.56;681628;28;1494;-56
2023/06/24 01:02:37;;;;;;;7.70;6.10;;;;;;;15.12;100.00;101605.84;679796;29;1412;-57
2023/06/24 01:02:57;;;;;;;8.07;6.18;;;;;;;15.08;100.00;101604.97;680608;29;920;-58
2023/06/24 01:03:17;;;;;;;8.60;6.10;;;;;;;15.05;100.00;101604.13;678606;29;1639;-56
2023/06/24 01:03:38;;;;;;;7.63;5.70;;;;;;;15.06;100.00;101605.88;679341;29;1414;-56
2023/06/24 01:03:59;;;;;;;7.65;5.75;;;;;;;15.07;100.00;101607.63;677192;29;4304;-55
2023/06/24 01:04:20;;;;;;;8.68;6.40;;;;;;;15.06;100.00;101601.47;678592;29;1057;-56
2023/06/24 01:04:41;;;;;;;9.77;6.50;;;;;;;15.05;100.00;101606.75;680614;29;787;-56
2023/06/24 01:05:01;;;;;;;8.83;6.07;;;;;;;15.04;100.00;101603.25;678290;29;1622;-56
2023/06/24 01:05:23;;;;;;;8.73;6.07;;;;;;;15.05;100.00;101605.00;682064;29;876;-55
2023/06/24 01:05:45;;;;;;;8.82;6.18;;;;;;;15.05;100.00;101601.50;682763;29;850;-57
2023/06/24 01:06:05;;;;;;;8.43;6.10;;;;;;;15.05;100.00;101602.38;680417;28;1482;-56
2023/06/24 01:06:30;;;;;;;8.48;6.35;;;;;;;15.03;100.00;101598.88;682207;29;1826;-57
2023/06/24 01:06:50;;;;;;;8.70;6.30;;;;;;;15.00;100.00;101601.53;679274;29;4721;-56
2023/06/24 01:07:11;;;;;;;8.10;6.07;;;;;;;15.04;100.00;101602.41;680263;28;1503;-56
2023/06/24 01:07:31;;;;;;;7.28;5.93;;;;;;;15.06;100.00;101608.50;679900;29;1326;-56
2023/06/24 01:07:55;;;;;;;7.47;6.10;;;;;;;15.04;100.00;101599.75;675091;29;765;-56
2023/06/24 01:08:16;;;;;;;7.88;5.93;;;;;;;15.03;100.00;101596.25;675667;29;1450;-56
2023/06/24 01:08:39;;;;;;;9.40;5.78;;;;;;;15.04;100.00;101602.41;678235;29;965;-57
2023/06/24 01:09:02;;;;;;;10.30;6.10;;;;;;;15.04;100.00;101605.03;678971;29;1518;-57
2023/06/24 01:09:23;;;;;;;8.85;6.13;;;;;;;15.06;100.00;101609.38;680584;29;1251;-56
2023/06/24 01:09:44;;;;;;;7.75;6.20;;;;;;;15.05;100.00;101604.13;680722;29;4302;-56
2023/06/24 01:10:05;;;;;;;7.88;6.07;;;;;;;15.03;100.00;101609.41;681683;28;1660;-56
2023/06/24 01:10:26;;;;;;;7.32;6.30;;;;;;;15.03;100.00;101605.91;684568;28;1479;-56
2023/06/24 01:10:46;;;;;;;7.68;6.22;;;;;;;15.03;100.00;101603.28;682395;29;1397;-55
2023/06/24 01:11:07;;;;;;;7.87;6.00;;;;;;;15.00;100.00;101608.56;679235;28;1463;-56
2023/06/24 01:11:28;;;;;;;8.00;6.20;;;;;;;15.00;100.00;101605.94;680288;29;1317;-56
2023/06/24 01:11:48;;;;;;;7.68;6.00;;;;;;;15.01;100.00;101610.28;679522;29;920;-56
2023/06/24 01:12:09;;;;;;;7.75;6.07;;;;;;;15.03;100.00;101611.19;678779;28;1482;-57
2023/06/24 01:12:29;;;;;;;7.70;6.18;;;;;;;15.04;100.00;101607.66;677168;29;3121;-55
2023/06/24 01:12:50;;;;;;;8.30;5.97;;;;;;;15.00;100.00;101606.81;679295;29;4525;-56
2023/06/24 01:13:11;;;;;;;8.35;6.07;;;;;;;14.98;100.00;101604.19;679546;29;1598;-57
2023/06/24 01:13:31;;;;;;;8.80;6.43;;;;;;;14.97;100.00;101607.69;680144;29;782;-56
2023/06/24 01:13:52;;;;;;;8.13;6.05;;;;;;;14.98;100.00;101609.44;683019;28;872;-57
2023/06/24 01:14:12;;;;;;;7.78;6.30;;;;;;;15.00;100.00;101608.56;681469;28;1534;-57
2023/06/24 01:14:35;;;;;;;8.93;6.13;;;;;;;14.97;100.00;101607.69;681280;29;1237;-57
2023/06/24 01:14:56;;;;;;;7.82;5.72;;;;;;;14.97;100.00;101607.69;682912;29;853;-56
2023/06/24 01:15:20;;;;;;;6.93;5.63;;;;;;;14.97;100.00;101607.69;681147;28;1712;-56
2023/06/24 01:15:41;;;;;;;7.32;5.53;;;;;;;14.98;100.00;101601.56;681394;28;4537;-57
2023/06/24 01:16:10;;;;;;;7.30;5.68;;;;;;;14.98;100.00;101609.44;678743;29;1515;-56
2023/06/24 01:16:54;;;;;;;7.47;5.65;;;;;;;15.00;100.00;101612.06;679092;29;968;-56
2023/06/24 01:17:19;;;;;;;9.13;6.22;;;;;;;15.01;100.00;101605.03;679758;28;1637;-57
2023/06/24 01:18:02;;;;;;;7.75;5.70;;;;;;;15.00;100.00;101605.94;681055;29;1257;-56
2023/06/24 01:18:34;;;;;;;7.93;6.03;;;;;;;14.98;100.00;101605.94;684981;28;809;-56
2023/06/24 01:19:00;;;;;;;8.68;6.30;;;;;;;14.98;100.00;101612.09;684491;28;4425;-55
2023/06/24 01:19:42;;;;;;;7.88;5.90;;;;;;;14.97;100.00;101610.34;684094;28;2148;-56
2023/06/24 01:20:17;;;;;;;8.38;6.22;;;;;;;14.98;100.00;101611.19;683881;28;1637;-56
2023/06/24 01:20:46;;;;;;;7.85;6.10;;;;;;;14.96;100.00;101608.56;683975;28;821;-56
2023/06/24 01:21:19;;;;;;;8.38;6.07;;;;;;;14.91;100.00;101613.03;683664;28;869;-56
2023/06/24 01:22:11;;;;;;;7.93;5.90;;;;;;;14.89;100.00;101606.88;680876;29;4607;-57
2023/06/24 01:22:52;;;;;;;7.85;5.88;;;;;;;14.89;100.00;101609.50;681210;29;1344;-57
2023/06/24 01:23:53;;;;;;;8.48;6.10;;;;;;;14.90;100.00;101610.41;681158;28;1654;-56
2023/06/24 01:24:29;;;;;;;8.32;6.10;;;;;;;14.92;100.00;101609.47;681059;28;1923;-56
2023/06/24 01:25:23;;;;;;;7.70;5.80;;;;;;;14.86;100.00;101609.53;680402;29;4413;-56
2023/06/24 01:26:03;;;;;;;8.80;5.88;;;;;;;14.80;100.00;101604.31;681603;29;1277;-55
2023/06/24 01:26:45;;;;;;;8.20;5.68;;;;;;;14.77;100.00;101607.88;680726;29;1009;-56
2023/06/24 01:27:32;;;;;;;8.77;6.38;;;;;;;14.79;100.00;101605.22;677538;28;1573;-56
2023/06/24 01:27:58;;;;;;;7.72;5.88;;;;;;;14.76;100.00;101607.84;676249;29;5167;-56
2023/06/24 01:28:37;;;;;;;9.15;6.00;;;;;;;14.76;100.00;101598.22;672901;29;1608;-55
2023/06/24 01:29:26;;;;;;;7.75;5.95;;;;;;;14.78;100.00;101601.69;675011;29;1384;-56
2023/06/24 01:30:11;;;;;;;10.27;6.22;;;;;;;14.81;100.00;101598.16;676423;29;952;-57
2023/06/24 01:30:40;;;;;;;8.70;5.97;;;;;;;14.85;100.00;101599.03;676089;29;1981;-56
2023/06/24 01:31:04;;;;;;;9.05;6.28;;;;;;;14.86;100.00;101601.66;678067;29;4877;-56
2023/06/24 01:31:48;;;;;;;8.27;5.93;;;;;;;14.88;100.00;101602.50;679041;29;1163;-56
2023/06/24 01:32:15;;;;;;;8.73;6.00;;;;;;;14.85;100.00;101599.03;675759;29;1539;-56
2023/06/24 01:32:48;;;;;;;8.93;6.18;;;;;;;14.88;100.00;101601.63;682286;29;878;-56
2023/06/24 01:33:13;;;;;;;8.63;5.90;;;;;;;14.87;100.00;101597.25;680489;28;1534;-56
2023/06/24 01:33:42;;;;;;;7.93;5.90;;;;;;;14.86;100.00;101601.66;681832;29;1000;-56
2023/06/24 01:34:27;;;;;;;7.78;6.10;;;;;;;14.85;100.00;101592.00;683459;28;4968;-56
2023/06/24 01:34:59;;;;;;;8.25;5.93;;;;;;;14.86;100.00;101593.75;683431;28;1510;-56
2023/06/24 01:35:25;;;;;;;7.97;5.60;;;;;;;14.90;100.00;101595.47;681945;28;2061;-56
2023/06/24 01:35:47;;;;;;;8.15;6.00;;;;;;;14.89;100.00;101593.72;682914;28;932;-56
2023/06/24 01:36:12;;;;;;;8.35;5.95;;;;;;;14.90;100.00;101590.22;682566;28;1691;-56
2023/06/24 01:36:37;;;;;;;7.35;5.78;;;;;;;14.89;100.00;101591.09;683385;28;1056;-56
2023/06/24 01:37:24;;;;;;;7.70;5.72;;;;;;;14.89;100.00;101593.72;684392;28;4451;-55
2023/06/24 01:37:49;;;;;;;8.55;5.78;;;;;;;14.85;100.00;101597.25;681016;29;1482;-56
2023/06/24 01:38:26;;;;;;;7.80;6.03;;;;;;;14.82;100.00;101589.41;681330;28;1444;-56
2023/06/24 01:38:54;;;;;;;7.90;6.07;;;;;;;14.78;100.00;101591.16;681456;29;5319;-57
2023/06/24 01:39:18;;;;;;;9.43;6.38;;;;;;;14.75;100.00;101590.34;680897;29;1829;-56
2023/06/24 01:39:47;;;;;;;8.38;5.72;;;;;;;14.70;100.00;101592.97;682117;29;802;-56
2023/06/24 01:40:37;;;;;;;10.00;6.28;;;;;;;14.70;100.00;101590.34;680672;28;4627;-56
2023/06/24 01:41:00;;;;;;;7.90;6.13;;;;;;;14.73;100.00;101587.72;680921;29;1155;-56
2023/06/24 01:41:26;;;;;;;7.57;5.80;;;;;;;14.73;100.00;101595.59;682897;28;1191;-56
2023/06/24 01:41:57;;;;;;;7.40;6.00;;;;;;;14.73;100.00;101594.72;681497;28;1212;-57
2023/06/24 01:42:21;;;;;;;7.03;5.72;;;;;;;14.74;100.00;101588.56;680194;29;1679;-56
2023/06/24 01:42:44;;;;;;;7.28;5.70;;;;;;;14.74;100.00;101591.22;680485;29;4372;-55
2023/06/24 01:43:08;;;;;;;8.93;6.03;;;;;;;14.73;100.00;101592.09;680152;28;1620;-56
2023/06/24 01:43:29;;;;;;;8.00;6.15;;;;;;;14.72;100.00;101595.63;679466;29;1209;-56
2023/06/24 01:43:54;;;;;;;8.30;5.72;;;;;;;14.71;100.00;101593.88;677171;29;1935;-58
2023/06/24 01:44:17;;;;;;;7.50;5.88;;;;;;;14.73;100.00;101592.09;675974;29;2005;-56
2023/06/24 01:44:41;;;;;;;8.13;6.43;;;;;;;14.72;100.00;101590.34;678303;29;1423;-56
2023/06/24 01:45:19;;;;;;;8.15;5.88;;;;;;;14.71;100.00;101588.59;674595;29;1826;-56
2023/06/24 01:45:45;;;;;;;8.77;6.15;;;;;;;14.72;100.00;101585.09;677746;29;4449;-57
2023/06/24 01:46:07;;;;;;;8.52;5.88;;;;;;;14.71;100.00;101583.34;682565;28;933;-56
2023/06/24 01:46:29;;;;;;;8.07;5.68;;;;;;;14.71;100.00;101591.25;680091;29;837;-56
2023/06/24 01:46:52;;;;;;;8.05;6.13;;;;;;;14.72;100.00;101587.72;680628;29;1486;-56
2023/06/24 01:47:18;;;;;;;8.95;6.45;;;;;;;14.69;100.00;101585.09;677375;29;1484;-56
2023/06/24 01:47:43;;;;;;;7.75;6.18;;;;;;;14.70;100.00;101586.84;676339;29;916;-56
2023/06/24 01:48:13;;;;;;;6.68;5.75;;;;;;;14.70;100.00;101584.22;672897;29;2638;-56
2023/06/24 01:48:39;;;;;;;7.90;5.80;;;;;;;14.69;100.00;101586.00;674822;29;961;-56
2023/06/24 01:49:04;;;;;;;7.65;5.75;;;;;;;14.67;100.00;101592.13;673689;29;5061;-56
2023/06/24 01:49:29;;;;;;;8.80;5.82;;;;;;;14.68;100.00;101592.13;674841;29;1330;-56
2023/06/24 01:49:53;;;;;;;9.53;5.73;;;;;;;14.69;100.00;101586.00;676338;29;2169;-56
2023/06/24 01:50:18;;;;;;;7.95;5.70;;;;;;;14.71;100.00;101593.88;675171;29;1984;-59
2023/06/24 01:50:47;;;;;;;7.90;5.80;;;;;;;14.69;100.00;101590.34;675841;29;1449;-56
2023/06/24 01:51:11;;;;;;;7.78;5.95;;;;;;;14.68;100.00;101593.91;677072;29;1322;-56
2023/06/24 01:51:36;;;;;;;8.93;6.03;;;;;;;14.69;100.00;101593.88;675661;29;1392;-56
2023/06/24 01:52:00;;;;;;;7.78;5.68;;;;;;;14.70;100.00;101597.38;676706;29;4547;-56
2023/06/24 01:52:23;;;;;;;7.60;5.50;;;;;;;14.70;100.00;101597.38;674389;29;1295;-55
2023/06/24 01:52:45;;;;;;;7.75;5.38;;;;;;;14.67;100.00;101592.13;675934;29;1010;-56
2023/06/24 01:53:07;;;;;;;8.05;5.70;;;;;;;14.67;100.00;101600.03;674775;29;1767;-56